sensor_id;sensor_type;location;lat;lon;timestamp;pressure;altitude;pressure_sealevel;temperature;humidity
52935;BME280;38802;50.198;19.796;2022-07-29T00:02:26;96558.23;;;15.48;58.31
52935;BME280;38802;50.198;19.796;2022-07-29T00:04:54;96555.89;;;15.48;58.44
52935;BME280;38802;50.198;19.796;2022-07-29T00:07:21;96563.05;;;15.48;58.43
52935;BME280;38802;50.198;19.796;2022-07-29T00:09:47;96562.32;;;15.49;58.59
52935;BME280;38802;50.198;19.796;2022-07-29T00:12:19;96560.66;;;15.50;58.32
52935;BME280;38802;50.198;19.796;2022-07-29T00:14:53;96563.61;;;15.50;58.13
52935;BME280;38802;50.198;19.796;2022-07-29T00:17:21;96565.66;;;15.48;58.10
52935;BME280;38802;50.198;19.796;2022-07-29T00:19:48;96566.48;;;15.47;58.08
52935;BME280;38802;50.198;19.796;2022-07-29T00:22:15;96567.61;;;15.46;57.89
52935;BME280;38802;50.198;19.796;2022-07-29T00:24:42;96565.49;;;15.45;57.99
52935;BME280;38802;50.198;19.796;2022-07-29T00:27:09;96565.21;;;15.42;57.89
52935;BME280;38802;50.198;19.796;2022-07-29T00:29:36;96563.21;;;15.39;57.98
52935;BME280;38802;50.198;19.796;2022-07-29T00:32:03;96567.62;;;15.37;57.88
52935;BME280;38802;50.198;19.796;2022-07-29T00:34:30;96567.67;;;15.35;58.00
52935;BME280;38802;50.198;19.796;2022-07-29T00:37:16;96565.33;;;15.34;58.04
52935;BME280;38802;50.198;19.796;2022-07-29T00:39:43;96564.20;;;15.33;58.08
52935;BME280;38802;50.198;19.796;2022-07-29T00:42:10;96564.78;;;15.32;57.81
52935;BME280;38802;50.198;19.796;2022-07-29T00:44:40;96563.22;;;15.30;58.05
52935;BME280;38802;50.198;19.796;2022-07-29T00:47:09;96560.48;;;15.29;57.93
52935;BME280;38802;50.198;19.796;2022-07-29T00:49:38;96558.76;;;15.28;57.91
52935;BME280;38802;50.198;19.796;2022-07-29T00:52:06;96554.44;;;15.27;58.03
52935;BME280;38802;50.198;19.796;2022-07-29T00:54:34;96554.50;;;15.26;57.99
52935;BME280;38802;50.198;19.796;2022-07-29T00:57:11;96551.83;;;15.25;58.07
52935;BME280;38802;50.198;19.796;2022-07-29T00:59:39;96551.63;;;15.22;58.22
52935;BME280;38802;50.198;19.796;2022-07-29T01:02:06;96545.06;;;15.19;58.02
52935;BME280;38802;50.198;19.796;2022-07-29T01:04:33;96547.16;;;15.17;58.31
52935;BME280;38802;50.198;19.796;2022-07-29T01:07:01;96546.82;;;15.13;58.08
52935;BME280;38802;50.198;19.796;2022-07-29T01:09:29;96546.20;;;15.11;58.28
52935;BME280;38802;50.198;19.796;2022-07-29T01:12:17;96550.00;;;15.07;58.54
52935;BME280;38802;50.198;19.796;2022-07-29T01:14:49;96548.89;;;15.04;58.46
52935;BME280;38802;50.198;19.796;2022-07-29T01:17:18;96546.16;;;15.02;58.54
52935;BME280;38802;50.198;19.796;2022-07-29T01:20:06;96545.07;;;15.00;58.47
52935;BME280;38802;50.198;19.796;2022-07-29T01:22:37;96544.84;;;14.97;58.58
52935;BME280;38802;50.198;19.796;2022-07-29T01:28:08;96544.23;;;14.96;58.88
52935;BME280;38802;50.198;19.796;2022-07-29T01:30:38;96542.77;;;14.95;58.76
52935;BME280;38802;50.198;19.796;2022-07-29T01:33:12;96545.66;;;14.94;58.80
52935;BME280;38802;50.198;19.796;2022-07-29T01:36:07;96542.30;;;14.95;58.85
52935;BME280;38802;50.198;19.796;2022-07-29T01:38:38;96542.05;;;14.95;58.68
52935;BME280;38802;50.198;19.796;2022-07-29T01:41:09;96543.30;;;14.95;58.77
52935;BME280;38802;50.198;19.796;2022-07-29T01:43:51;96542.66;;;14.94;58.78
52935;BME280;38802;50.198;19.796;2022-07-29T01:46:24;96545.45;;;14.95;58.78
52935;BME280;38802;50.198;19.796;2022-07-29T01:48:59;96542.64;;;14.95;59.07
52935;BME280;38802;50.198;19.796;2022-07-29T01:51:37;96537.95;;;14.92;58.87
52935;BME280;38802;50.198;19.796;2022-07-29T01:56:38;96538.16;;;14.90;58.85
52935;BME280;38802;50.198;19.796;2022-07-29T01:59:07;96532.80;;;14.90;58.90
52935;BME280;38802;50.198;19.796;2022-07-29T02:01:37;96530.35;;;14.88;58.67
52935;BME280;38802;50.198;19.796;2022-07-29T02:04:07;96524.92;;;14.86;58.99
52935;BME280;38802;50.198;19.796;2022-07-29T02:06:38;96525.23;;;14.85;58.89
52935;BME280;38802;50.198;19.796;2022-07-29T02:09:09;96525.16;;;14.84;58.95
52935;BME280;38802;50.198;19.796;2022-07-29T02:11:37;96522.54;;;14.82;58.91
52935;BME280;38802;50.198;19.796;2022-07-29T02:14:06;96514.63;;;14.81;59.17
52935;BME280;38802;50.198;19.796;2022-07-29T02:16:36;96513.17;;;14.79;59.16
52935;BME280;38802;50.198;19.796;2022-07-29T02:19:05;96508.42;;;14.78;59.00
52935;BME280;38802;50.198;19.796;2022-07-29T02:21:35;96506.66;;;14.76;59.29
52935;BME280;38802;50.198;19.796;2022-07-29T02:24:04;96502.96;;;14.74;59.19
52935;BME280;38802;50.198;19.796;2022-07-29T02:26:33;96504.45;;;14.73;59.36
52935;BME280;38802;50.198;19.796;2022-07-29T02:29:01;96498.70;;;14.71;59.40
52935;BME280;38802;50.198;19.796;2022-07-29T02:31:32;96498.05;;;14.69;59.30
52935;BME280;38802;50.198;19.796;2022-07-29T02:34:02;96497.90;;;14.67;59.39
52935;BME280;38802;50.198;19.796;2022-07-29T02:36:31;96495.84;;;14.64;59.37
52935;BME280;38802;50.198;19.796;2022-07-29T02:38:59;96494.24;;;14.63;59.43
52935;BME280;38802;50.198;19.796;2022-07-29T02:41:35;96490.23;;;14.61;59.45
52935;BME280;38802;50.198;19.796;2022-07-29T02:44:09;96488.29;;;14.59;59.59
52935;BME280;38802;50.198;19.796;2022-07-29T02:46:37;96487.06;;;14.57;59.59
52935;BME280;38802;50.198;19.796;2022-07-29T02:52:02;96492.98;;;14.56;59.94
52935;BME280;38802;50.198;19.796;2022-07-29T02:54:42;96487.55;;;14.54;59.96
52935;BME280;38802;50.198;19.796;2022-07-29T02:57:18;96484.68;;;14.51;59.85
52935;BME280;38802;50.198;19.796;2022-07-29T02:59:47;96481.27;;;14.49;59.94
52935;BME280;38802;50.198;19.796;2022-07-29T03:02:16;96483.63;;;14.46;59.88
52935;BME280;38802;50.198;19.796;2022-07-29T03:04:44;96483.45;;;14.44;60.23
52935;BME280;38802;50.198;19.796;2022-07-29T03:07:14;96486.77;;;14.42;60.25
52935;BME280;38802;50.198;19.796;2022-07-29T03:09:42;96483.63;;;14.40;60.19
52935;BME280;38802;50.198;19.796;2022-07-29T03:12:10;96487.30;;;14.38;60.30
52935;BME280;38802;50.198;19.796;2022-07-29T03:14:38;96494.90;;;14.35;60.51
52935;BME280;38802;50.198;19.796;2022-07-29T03:17:05;96492.77;;;14.32;60.56
52935;BME280;38802;50.198;19.796;2022-07-29T03:19:32;96492.05;;;14.30;60.86
52935;BME280;38802;50.198;19.796;2022-07-29T03:22:00;96491.27;;;14.29;61.02
52935;BME280;38802;50.198;19.796;2022-07-29T03:24:33;96492.09;;;14.28;60.92
52935;BME280;38802;50.198;19.796;2022-07-29T03:27:01;96491.16;;;14.27;60.94
52935;BME280;38802;50.198;19.796;2022-07-29T03:29:29;96485.60;;;14.26;61.05
52935;BME280;38802;50.198;19.796;2022-07-29T03:32:02;96482.77;;;14.25;61.20
52935;BME280;38802;50.198;19.796;2022-07-29T03:34:33;96484.73;;;14.24;61.23
52935;BME280;38802;50.198;19.796;2022-07-29T03:37:00;96485.28;;;14.22;61.27
52935;BME280;38802;50.198;19.796;2022-07-29T03:39:29;96488.69;;;14.21;61.31
52935;BME280;38802;50.198;19.796;2022-07-29T03:41:59;96490.16;;;14.20;61.26
52935;BME280;38802;50.198;19.796;2022-07-29T03:44:27;96497.05;;;14.21;61.40
52935;BME280;38802;50.198;19.796;2022-07-29T03:46:57;96500.77;;;14.23;61.42
52935;BME280;38802;50.198;19.796;2022-07-29T03:49:27;96504.15;;;14.24;61.22
52935;BME280;38802;50.198;19.796;2022-07-29T03:51:55;96507.10;;;14.26;61.37
52935;BME280;38802;50.198;19.796;2022-07-29T03:54:22;96510.30;;;14.29;61.57
52935;BME280;38802;50.198;19.796;2022-07-29T03:56:50;96507.11;;;14.31;61.44
52935;BME280;38802;50.198;19.796;2022-07-29T03:59:20;96508.67;;;14.35;61.46
52935;BME280;38802;50.198;19.796;2022-07-29T04:01:48;96502.30;;;14.38;61.72
52935;BME280;38802;50.198;19.796;2022-07-29T04:04:16;96507.33;;;14.40;61.53
52935;BME280;38802;50.198;19.796;2022-07-29T04:06:45;96506.30;;;14.42;61.70
52935;BME280;38802;50.198;19.796;2022-07-29T04:09:14;96507.20;;;14.42;61.70
52935;BME280;38802;50.198;19.796;2022-07-29T04:11:42;96499.09;;;14.43;61.51
52935;BME280;38802;50.198;19.796;2022-07-29T04:14:30;96495.29;;;14.44;61.54
52935;BME280;38802;50.198;19.796;2022-07-29T04:16:57;96496.36;;;14.46;61.62
52935;BME280;38802;50.198;19.796;2022-07-29T04:19:24;96493.10;;;14.48;61.67
52935;BME280;38802;50.198;19.796;2022-07-29T04:21:51;96489.17;;;14.48;62.00
52935;BME280;38802;50.198;19.796;2022-07-29T04:24:17;96485.01;;;14.50;61.80
52935;BME280;38802;50.198;19.796;2022-07-29T04:26:46;96477.60;;;14.50;62.02
52935;BME280;38802;50.198;19.796;2022-07-29T04:29:13;96475.00;;;14.52;61.93
52935;BME280;38802;50.198;19.796;2022-07-29T04:31:41;96482.57;;;14.55;61.94
52935;BME280;38802;50.198;19.796;2022-07-29T04:34:08;96488.54;;;14.60;61.88
52935;BME280;38802;50.198;19.796;2022-07-29T04:36:36;96491.75;;;14.65;61.77
52935;BME280;38802;50.198;19.796;2022-07-29T04:39:03;96488.61;;;14.72;61.74
52935;BME280;38802;50.198;19.796;2022-07-29T04:41:30;96485.85;;;14.80;61.83
52935;BME280;38802;50.198;19.796;2022-07-29T04:43:59;96484.79;;;14.87;61.81
52935;BME280;38802;50.198;19.796;2022-07-29T04:46:31;96484.73;;;14.95;61.61
52935;BME280;38802;50.198;19.796;2022-07-29T04:48:58;96482.59;;;14.99;61.49
52935;BME280;38802;50.198;19.796;2022-07-29T04:51:25;96479.14;;;14.98;61.50
52935;BME280;38802;50.198;19.796;2022-07-29T04:53:52;96481.21;;;14.99;61.58
52935;BME280;38802;50.198;19.796;2022-07-29T04:56:19;96479.12;;;15.06;61.53
52935;BME280;38802;50.198;19.796;2022-07-29T04:58:45;96476.54;;;15.16;61.48
52935;BME280;38802;50.198;19.796;2022-07-29T05:01:12;96481.63;;;15.31;61.53
52935;BME280;38802;50.198;19.796;2022-07-29T05:03:40;96484.84;;;15.48;61.46
52935;BME280;38802;50.198;19.796;2022-07-29T05:06:06;96483.14;;;15.63;61.30
52935;BME280;38802;50.198;19.796;2022-07-29T05:08:33;96478.75;;;15.79;60.97
52935;BME280;38802;50.198;19.796;2022-07-29T05:11:00;96479.41;;;15.94;61.08
52935;BME280;38802;50.198;19.796;2022-07-29T05:13:41;96476.44;;;16.08;60.32
52935;BME280;38802;50.198;19.796;2022-07-29T05:16:13;96475.55;;;16.22;60.06
52935;BME280;38802;50.198;19.796;2022-07-29T05:18:41;96474.46;;;16.34;59.85
52935;BME280;38802;50.198;19.796;2022-07-29T05:21:08;96471.70;;;16.46;59.70
52935;BME280;38802;50.198;19.796;2022-07-29T05:23:35;96474.08;;;16.64;59.91
52935;BME280;38802;50.198;19.796;2022-07-29T05:26:02;96474.61;;;16.83;59.26
52935;BME280;38802;50.198;19.796;2022-07-29T05:28:33;96469.17;;;16.93;58.85
52935;BME280;38802;50.198;19.796;2022-07-29T05:31:00;96467.09;;;17.04;59.07
52935;BME280;38802;50.198;19.796;2022-07-29T05:33:28;96461.37;;;17.19;58.86
52935;BME280;38802;50.198;19.796;2022-07-29T05:36:06;96463.55;;;17.33;58.40
52935;BME280;38802;50.198;19.796;2022-07-29T05:38:35;96463.84;;;17.47;58.13
52935;BME280;38802;50.198;19.796;2022-07-29T05:41:02;96464.40;;;17.61;57.82
52935;BME280;38802;50.198;19.796;2022-07-29T05:43:29;96469.80;;;17.73;57.33
52935;BME280;38802;50.198;19.796;2022-07-29T05:45:56;96468.41;;;17.86;57.54
52935;BME280;38802;50.198;19.796;2022-07-29T05:48:24;96471.89;;;18.00;57.58
52935;BME280;38802;50.198;19.796;2022-07-29T05:50:51;96469.66;;;18.13;57.23
52935;BME280;38802;50.198;19.796;2022-07-29T05:53:18;96468.86;;;18.24;57.14
52935;BME280;38802;50.198;19.796;2022-07-29T05:55:47;96468.80;;;18.39;56.45
52935;BME280;38802;50.198;19.796;2022-07-29T05:58:15;96474.18;;;18.49;56.41
52935;BME280;38802;50.198;19.796;2022-07-29T06:00:42;96471.13;;;18.63;56.50
52935;BME280;38802;50.198;19.796;2022-07-29T06:03:09;96476.95;;;18.77;55.77
52935;BME280;38802;50.198;19.796;2022-07-29T06:05:35;96475.20;;;18.89;56.04
52935;BME280;38802;50.198;19.796;2022-07-29T06:08:03;96479.98;;;19.04;55.31
52935;BME280;38802;50.198;19.796;2022-07-29T06:10:32;96479.96;;;19.12;55.29
52935;BME280;38802;50.198;19.796;2022-07-29T06:12:59;96481.41;;;19.25;55.35
52935;BME280;38802;50.198;19.796;2022-07-29T06:15:27;96478.00;;;19.42;55.24
52935;BME280;38802;50.198;19.796;2022-07-29T06:17:54;96478.20;;;19.64;55.16
52935;BME280;38802;50.198;19.796;2022-07-29T06:20:30;96480.13;;;19.84;54.36
52935;BME280;38802;50.198;19.796;2022-07-29T06:22:59;96474.12;;;19.97;53.88
52935;BME280;38802;50.198;19.796;2022-07-29T06:25:27;96476.23;;;20.02;54.05
52935;BME280;38802;50.198;19.796;2022-07-29T06:27:55;96472.45;;;19.95;53.98
52935;BME280;38802;50.198;19.796;2022-07-29T06:30:23;96469.44;;;19.85;53.82
52935;BME280;38802;50.198;19.796;2022-07-29T06:32:50;96475.55;;;19.78;54.21
52935;BME280;38802;50.198;19.796;2022-07-29T06:35:16;96473.30;;;19.72;53.95
52935;BME280;38802;50.198;19.796;2022-07-29T06:38:03;96477.64;;;19.68;54.06
52935;BME280;38802;50.198;19.796;2022-07-29T06:40:42;96475.94;;;19.66;54.08
52935;BME280;38802;50.198;19.796;2022-07-29T06:43:34;96477.09;;;19.79;54.25
52935;BME280;38802;50.198;19.796;2022-07-29T06:46:19;96477.58;;;19.92;54.16
52935;BME280;38802;50.198;19.796;2022-07-29T06:48:47;96478.01;;;19.99;53.93
52935;BME280;38802;50.198;19.796;2022-07-29T06:51:15;96478.14;;;20.07;54.04
52935;BME280;38802;50.198;19.796;2022-07-29T06:53:50;96473.73;;;20.25;53.89
52935;BME280;38802;50.198;19.796;2022-07-29T06:56:33;96472.77;;;20.50;53.68
52935;BME280;38802;50.198;19.796;2022-07-29T06:59:11;96469.69;;;20.63;52.69
52935;BME280;38802;50.198;19.796;2022-07-29T07:01:40;96468.45;;;20.65;52.75
52935;BME280;38802;50.198;19.796;2022-07-29T07:04:09;96472.53;;;20.72;52.71
52935;BME280;38802;50.198;19.796;2022-07-29T07:06:37;96474.47;;;20.80;52.67
52935;BME280;38802;50.198;19.796;2022-07-29T07:09:04;96474.02;;;20.74;52.48
52935;BME280;38802;50.198;19.796;2022-07-29T07:11:31;96474.64;;;20.65;52.69
52935;BME280;38802;50.198;19.796;2022-07-29T07:13:58;96475.99;;;20.59;52.75
52935;BME280;38802;50.198;19.796;2022-07-29T07:16:34;96474.92;;;20.71;52.96
52935;BME280;38802;50.198;19.796;2022-07-29T07:19:03;96475.02;;;20.90;52.50
52935;BME280;38802;50.198;19.796;2022-07-29T07:21:30;96471.33;;;21.04;52.32
52935;BME280;38802;50.198;19.796;2022-07-29T07:23:58;96476.39;;;21.21;52.25
52935;BME280;38802;50.198;19.796;2022-07-29T07:26:27;96476.61;;;21.34;51.97
52935;BME280;38802;50.198;19.796;2022-07-29T07:28:54;96471.61;;;21.51;51.39
52935;BME280;38802;50.198;19.796;2022-07-29T07:31:21;96472.98;;;21.69;51.51
52935;BME280;38802;50.198;19.796;2022-07-29T07:33:48;96473.33;;;21.87;51.41
52935;BME280;38802;50.198;19.796;2022-07-29T07:36:15;96477.78;;;21.97;50.72
52935;BME280;38802;50.198;19.796;2022-07-29T07:38:41;96473.06;;;22.07;50.39
52935;BME280;38802;50.198;19.796;2022-07-29T07:41:08;96468.00;;;22.13;50.28
52935;BME280;38802;50.198;19.796;2022-07-29T07:43:35;96468.31;;;22.16;50.17
52935;BME280;38802;50.198;19.796;2022-07-29T07:46:02;96469.52;;;22.20;49.49
52935;BME280;38802;50.198;19.796;2022-07-29T07:48:29;96463.94;;;22.29;49.57
52935;BME280;38802;50.198;19.796;2022-07-29T07:50:55;96466.06;;;22.41;48.77
52935;BME280;38802;50.198;19.796;2022-07-29T07:53:22;96463.05;;;22.49;48.83
52935;BME280;38802;50.198;19.796;2022-07-29T07:55:49;96466.92;;;22.58;48.33
52935;BME280;38802;50.198;19.796;2022-07-29T07:58:36;96465.58;;;22.57;48.23
52935;BME280;38802;50.198;19.796;2022-07-29T08:01:06;96467.89;;;22.68;48.19
52935;BME280;38802;50.198;19.796;2022-07-29T08:03:34;96461.58;;;22.73;47.53
52935;BME280;38802;50.198;19.796;2022-07-29T08:06:02;96461.43;;;22.77;47.80
52935;BME280;38802;50.198;19.796;2022-07-29T08:08:30;96460.80;;;22.86;47.74
52935;BME280;38802;50.198;19.796;2022-07-29T08:10:57;96461.69;;;22.91;47.15
52935;BME280;38802;50.198;19.796;2022-07-29T08:13:26;96460.11;;;22.95;47.24
52935;BME280;38802;50.198;19.796;2022-07-29T08:15:57;96454.11;;;22.97;46.70
52935;BME280;38802;50.198;19.796;2022-07-29T08:18:28;96459.00;;;23.07;47.10
52935;BME280;38802;50.198;19.796;2022-07-29T08:20:56;96459.64;;;23.16;46.80
52935;BME280;38802;50.198;19.796;2022-07-29T08:23:23;96463.73;;;23.18;46.28
52935;BME280;38802;50.198;19.796;2022-07-29T08:25:51;96460.88;;;23.17;46.97
52935;BME280;38802;50.198;19.796;2022-07-29T08:28:21;96463.66;;;23.22;46.13
52935;BME280;38802;50.198;19.796;2022-07-29T08:30:52;96461.21;;;23.20;46.40
52935;BME280;38802;50.198;19.796;2022-07-29T08:33:19;96463.04;;;23.28;46.65
52935;BME280;38802;50.198;19.796;2022-07-29T08:35:46;96468.44;;;23.41;46.19
52935;BME280;38802;50.198;19.796;2022-07-29T08:38:13;96467.36;;;23.40;45.83
52935;BME280;38802;50.198;19.796;2022-07-29T08:40:40;96462.80;;;23.43;46.01
52935;BME280;38802;50.198;19.796;2022-07-29T08:43:08;96458.88;;;23.53;46.34
52935;BME280;38802;50.198;19.796;2022-07-29T08:45:45;96458.17;;;23.64;46.00
52935;BME280;38802;50.198;19.796;2022-07-29T08:48:17;96462.09;;;23.62;45.80
52935;BME280;38802;50.198;19.796;2022-07-29T08:50:46;96456.13;;;23.65;45.97
52935;BME280;38802;50.198;19.796;2022-07-29T08:53:15;96456.83;;;23.71;45.66
52935;BME280;38802;50.198;19.796;2022-07-29T08:55:43;96460.15;;;23.74;45.67
52935;BME280;38802;50.198;19.796;2022-07-29T08:58:11;96456.55;;;23.79;45.95
52935;BME280;38802;50.198;19.796;2022-07-29T09:00:47;96456.79;;;23.89;45.85
52935;BME280;38802;50.198;19.796;2022-07-29T09:03:18;96454.38;;;23.94;45.48
52935;BME280;38802;50.198;19.796;2022-07-29T09:05:46;96455.36;;;23.90;45.69
52935;BME280;38802;50.198;19.796;2022-07-29T09:08:15;96460.05;;;23.86;45.71
52935;BME280;38802;50.198;19.796;2022-07-29T09:10:43;96460.15;;;23.75;45.64
52935;BME280;38802;50.198;19.796;2022-07-29T09:13:11;96461.88;;;23.81;46.38
52935;BME280;38802;50.198;19.796;2022-07-29T09:15:38;96457.52;;;23.99;46.37
52935;BME280;38802;50.198;19.796;2022-07-29T09:18:05;96455.31;;;24.12;46.12
52935;BME280;38802;50.198;19.796;2022-07-29T09:20:32;96456.45;;;24.15;45.47
52935;BME280;38802;50.198;19.796;2022-07-29T09:23:17;96457.41;;;24.07;45.57
52935;BME280;38802;50.198;19.796;2022-07-29T09:25:50;96454.45;;;24.05;45.67
52935;BME280;38802;50.198;19.796;2022-07-29T09:28:18;96454.98;;;24.14;46.02
52935;BME280;38802;50.198;19.796;2022-07-29T09:30:57;96456.23;;;24.22;45.52
52935;BME280;38802;50.198;19.796;2022-07-29T09:33:32;96452.67;;;24.22;45.25
52935;BME280;38802;50.198;19.796;2022-07-29T09:36:08;96445.71;;;24.25;45.48
52935;BME280;38802;50.198;19.796;2022-07-29T09:38:36;96443.16;;;24.28;45.31
52935;BME280;38802;50.198;19.796;2022-07-29T09:41:06;96448.51;;;24.30;45.27
52935;BME280;38802;50.198;19.796;2022-07-29T09:43:35;96441.20;;;24.30;45.41
52935;BME280;38802;50.198;19.796;2022-07-29T09:46:12;96437.56;;;24.34;45.59
52935;BME280;38802;50.198;19.796;2022-07-29T09:48:40;96438.39;;;24.47;45.42
52935;BME280;38802;50.198;19.796;2022-07-29T09:51:19;96436.08;;;24.54;45.56
52935;BME280;38802;50.198;19.796;2022-07-29T09:53:54;96433.89;;;24.61;45.55
52935;BME280;38802;50.198;19.796;2022-07-29T09:56:40;96429.55;;;24.58;45.23
52935;BME280;38802;50.198;19.796;2022-07-29T09:59:08;96435.36;;;24.48;45.36
52935;BME280;38802;50.198;19.796;2022-07-29T10:01:35;96429.51;;;24.44;45.37
52935;BME280;38802;50.198;19.796;2022-07-29T10:04:02;96427.20;;;24.49;45.73
52935;BME280;38802;50.198;19.796;2022-07-29T10:06:29;96431.00;;;24.54;45.69
52935;BME280;38802;50.198;19.796;2022-07-29T10:09:16;96430.50;;;24.45;45.18
52935;BME280;38802;50.198;19.796;2022-07-29T10:12:11;96430.80;;;24.33;45.55
52935;BME280;38802;50.198;19.796;2022-07-29T10:14:41;96425.69;;;24.30;45.83
52935;BME280;38802;50.198;19.796;2022-07-29T10:17:10;96424.41;;;24.38;46.07
52935;BME280;38802;50.198;19.796;2022-07-29T10:19:38;96424.91;;;24.44;45.56
52935;BME280;38802;50.198;19.796;2022-07-29T10:22:07;96423.95;;;24.42;45.78
52935;BME280;38802;50.198;19.796;2022-07-29T10:24:36;96426.42;;;24.50;46.24
52935;BME280;38802;50.198;19.796;2022-07-29T10:27:06;96429.36;;;24.70;46.52
52935;BME280;38802;50.198;19.796;2022-07-29T10:29:33;96427.92;;;24.86;45.86
52935;BME280;38802;50.198;19.796;2022-07-29T10:37:37;96414.06;;;24.40;45.95
52935;BME280;38802;50.198;19.796;2022-07-29T10:43:15;96413.77;;;24.62;45.75
52935;BME280;38802;50.198;19.796;2022-07-29T10:45:46;96411.53;;;24.69;45.86
52935;BME280;38802;50.198;19.796;2022-07-29T10:48:16;96405.83;;;24.83;45.71
52935;BME280;38802;50.198;19.796;2022-07-29T10:50:55;96406.37;;;24.97;45.81
52935;BME280;38802;50.198;19.796;2022-07-29T10:53:23;96406.96;;;25.02;44.86
52935;BME280;38802;50.198;19.796;2022-07-29T10:55:51;96404.89;;;24.91;44.62
52935;BME280;38802;50.198;19.796;2022-07-29T10:58:23;96403.21;;;24.85;45.04
52935;BME280;38802;50.198;19.796;2022-07-29T11:00:53;96398.27;;;24.88;45.43
52935;BME280;38802;50.198;19.796;2022-07-29T11:06:17;96393.95;;;25.12;45.38
52935;BME280;38802;50.198;19.796;2022-07-29T11:09:19;96396.48;;;25.20;44.87
52935;BME280;38802;50.198;19.796;2022-07-29T11:12:02;96395.14;;;25.16;44.44
52935;BME280;38802;50.198;19.796;2022-07-29T11:14:55;96402.23;;;25.04;44.53
52935;BME280;38802;50.198;19.796;2022-07-29T11:17:22;96398.05;;;24.92;44.70
52935;BME280;38802;50.198;19.796;2022-07-29T11:19:51;96403.61;;;24.85;44.99
52935;BME280;38802;50.198;19.796;2022-07-29T11:22:35;96403.89;;;24.77;44.89
52935;BME280;38802;50.198;19.796;2022-07-29T11:25:16;96405.84;;;24.62;45.36
52935;BME280;38802;50.198;19.796;2022-07-29T11:27:45;96403.13;;;24.55;45.65
52935;BME280;38802;50.198;19.796;2022-07-29T11:30:14;96402.01;;;24.45;45.68
52935;BME280;38802;50.198;19.796;2022-07-29T11:32:42;96398.48;;;24.32;45.86
52935;BME280;38802;50.198;19.796;2022-07-29T11:35:21;96400.23;;;24.35;46.20
52935;BME280;38802;50.198;19.796;2022-07-29T11:41:18;96398.36;;;24.74;45.58
52935;BME280;38802;50.198;19.796;2022-07-29T11:43:55;96391.64;;;24.95;45.72
52935;BME280;38802;50.198;19.796;2022-07-29T11:46:45;96384.04;;;25.11;45.61
52935;BME280;38802;50.198;19.796;2022-07-29T11:51:59;96377.83;;;25.48;45.31
52935;BME280;38802;50.198;19.796;2022-07-29T11:54:34;96380.03;;;25.50;44.74
52935;BME280;38802;50.198;19.796;2022-07-29T11:57:22;96376.85;;;25.41;44.51
52935;BME280;38802;50.198;19.796;2022-07-29T12:00:05;96374.31;;;25.35;44.45
52935;BME280;38802;50.198;19.796;2022-07-29T12:02:42;96373.03;;;25.24;44.51
52935;BME280;38802;50.198;19.796;2022-07-29T12:05:15;96372.91;;;25.17;44.93
52935;BME280;38802;50.198;19.796;2022-07-29T12:08:09;96368.05;;;25.20;45.15
52935;BME280;38802;50.198;19.796;2022-07-29T12:10:41;96365.09;;;25.27;44.86
52935;BME280;38802;50.198;19.796;2022-07-29T12:13:10;96361.23;;;25.27;44.65
52935;BME280;38802;50.198;19.796;2022-07-29T12:15:39;96358.89;;;25.27;44.50
52935;BME280;38802;50.198;19.796;2022-07-29T12:18:15;96358.14;;;25.29;44.48
52935;BME280;38802;50.198;19.796;2022-07-29T12:20:46;96356.54;;;25.30;44.13
52935;BME280;38802;50.198;19.796;2022-07-29T12:23:13;96354.00;;;25.29;44.33
52935;BME280;38802;50.198;19.796;2022-07-29T12:25:43;96354.84;;;25.27;44.51
52935;BME280;38802;50.198;19.796;2022-07-29T12:28:16;96353.95;;;25.15;44.43
52935;BME280;38802;50.198;19.796;2022-07-29T12:30:54;96356.61;;;24.98;44.79
52935;BME280;38802;50.198;19.796;2022-07-29T12:33:23;96359.23;;;24.88;44.88
52935;BME280;38802;50.198;19.796;2022-07-29T12:35:57;96357.74;;;24.82;45.04
52935;BME280;38802;50.198;19.796;2022-07-29T12:38:34;96355.80;;;24.76;45.21
52935;BME280;38802;50.198;19.796;2022-07-29T12:41:02;96355.84;;;24.78;45.24
52935;BME280;38802;50.198;19.796;2022-07-29T12:43:30;96354.46;;;24.82;45.43
52935;BME280;38802;50.198;19.796;2022-07-29T12:46:14;96355.69;;;24.90;45.36
52935;BME280;38802;50.198;19.796;2022-07-29T12:48:43;96355.45;;;25.02;45.63
52935;BME280;38802;50.198;19.796;2022-07-29T12:51:11;96348.71;;;25.16;44.60
52935;BME280;38802;50.198;19.796;2022-07-29T12:53:40;96343.44;;;25.18;44.64
52935;BME280;38802;50.198;19.796;2022-07-29T12:56:15;96341.08;;;25.16;44.28
52935;BME280;38802;50.198;19.796;2022-07-29T12:59:13;96346.49;;;25.10;44.52
52935;BME280;38802;50.198;19.796;2022-07-29T13:01:41;96336.70;;;25.04;44.30
52935;BME280;38802;50.198;19.796;2022-07-29T13:04:08;96336.60;;;24.94;44.70
52935;BME280;38802;50.198;19.796;2022-07-29T13:06:40;96342.55;;;24.86;45.00
52935;BME280;38802;50.198;19.796;2022-07-29T13:09:13;96342.48;;;24.78;45.21
52935;BME280;38802;50.198;19.796;2022-07-29T13:11:45;96342.08;;;24.73;45.36
52935;BME280;38802;50.198;19.796;2022-07-29T13:17:07;96334.23;;;24.86;46.01
52935;BME280;38802;50.198;19.796;2022-07-29T13:19:44;96325.02;;;25.01;46.11
52935;BME280;38802;50.198;19.796;2022-07-29T13:22:22;96324.80;;;25.18;45.90
52935;BME280;38802;50.198;19.796;2022-07-29T13:24:54;96317.50;;;25.25;45.27
52935;BME280;38802;50.198;19.796;2022-07-29T13:27:26;96317.58;;;25.31;45.21
52935;BME280;38802;50.198;19.796;2022-07-29T13:29:55;96314.30;;;25.35;45.19
52935;BME280;38802;50.198;19.796;2022-07-29T13:32:27;96315.57;;;25.36;44.89
52935;BME280;38802;50.198;19.796;2022-07-29T13:34:56;96314.30;;;25.37;44.74
52935;BME280;38802;50.198;19.796;2022-07-29T13:37:24;96311.23;;;25.36;44.88
52935;BME280;38802;50.198;19.796;2022-07-29T13:39:51;96309.52;;;25.39;45.06